sensor_id;sensor_type;location;lat;lon;timestamp;P1;durP1;ratioP1;P2;durP2;ratioP2
55813;SDS011;65494;42.818;0.404;2023-09-18T06:01:57;3.63;;;1.50;;
55813;SDS011;65494;42.818;0.404;2023-09-18T06:04:24;5.40;;;1.92;;
55813;SDS011;65494;42.818;0.404;2023-09-18T06:06:50;4.07;;;1.63;;
55813;SDS011;65494;42.818;0.404;2023-09-18T06:09:16;5.28;;;1.80;;
55813;SDS011;65494;42.818;0.404;2023-09-18T06:11:43;8.10;;;2.15;;
55813;SDS011;65494;42.818;0.404;2023-09-18T06:14:09;4.15;;;1.67;;
55813;SDS011;65494;42.818;0.404;2023-09-18T06:16:36;5.78;;;1.80;;
55813;SDS011;65494;42.818;0.404;2023-09-18T06:19:02;7.35;;;2.08;;
55813;SDS011;65494;42.818;0.404;2023-09-18T06:21:28;4.10;;;1.83;;
55813;SDS011;65494;42.818;0.404;2023-09-18T06:23:54;5.82;;;2.15;;
55813;SDS011;65494;42.818;0.404;2023-09-18T06:26:20;5.30;;;1.75;;
55813;SDS011;65494;42.818;0.404;2023-09-18T06:28:46;5.43;;;1.80;;
55813;SDS011;65494;42.818;0.404;2023-09-18T06:31:16;5.35;;;1.90;;
55813;SDS011;65494;42.818;0.404;2023-09-18T06:33:42;4.30;;;1.65;;
55813;SDS011;65494;42.818;0.404;2023-09-18T06:36:08;3.15;;;1.60;;
55813;SDS011;65494;42.818;0.404;2023-09-18T06:38:34;4.60;;;1.75;;
55813;SDS011;65494;42.818;0.404;2023-09-18T06:41:00;3.55;;;1.80;;
55813;SDS011;65494;42.818;0.404;2023-09-18T06:43:26;4.70;;;1.98;;
55813;SDS011;65494;42.818;0.404;2023-09-18T06:45:52;7.13;;;2.10;;
55813;SDS011;65494;42.818;0.404;2023-09-18T06:48:18;4.30;;;1.90;;
55813;SDS011;65494;42.818;0.404;2023-09-18T06:50:44;4.03;;;1.90;;
55813;SDS011;65494;42.818;0.404;2023-09-18T06:53:10;6.65;;;1.67;;
55813;SDS011;65494;42.818;0.404;2023-09-18T06:55:36;6.95;;;2.22;;
55813;SDS011;65494;42.818;0.404;2023-09-18T06:58:03;6.43;;;1.90;;
55813;SDS011;65494;42.818;0.404;2023-09-18T07:00:29;10.85;;;1.95;;
55813;SDS011;65494;42.818;0.404;2023-09-18T07:02:55;3.88;;;1.80;;
55813;SDS011;65494;42.818;0.404;2023-09-18T07:05:21;3.10;;;1.23;;
55813;SDS011;65494;42.818;0.404;2023-09-18T07:07:47;7.78;;;1.92;;
55813;SDS011;65494;42.818;0.404;2023-09-18T07:10:13;2.72;;;1.50;;
55813;SDS011;65494;42.818;0.404;2023-09-18T07:12:40;5.32;;;1.88;;
55813;SDS011;65494;42.818;0.404;2023-09-18T07:15:07;3.83;;;1.40;;
55813;SDS011;65494;42.818;0.404;2023-09-18T07:18:09;4.55;;;1.45;;
55813;SDS011;65494;42.818;0.404;2023-09-18T07:20:54;3.45;;;1.70;;
55813;SDS011;65494;42.818;0.404;2023-09-18T07:23:20;3.58;;;1.65;;
55813;SDS011;65494;42.818;0.404;2023-09-18T07:25:49;6.35;;;1.88;;
55813;SDS011;65494;42.818;0.404;2023-09-18T07:28:16;4.68;;;1.40;;
55813;SDS011;65494;42.818;0.404;2023-09-18T07:30:44;4.50;;;1.85;;
55813;SDS011;65494;42.818;0.404;2023-09-18T07:33:10;3.40;;;1.25;;
55813;SDS011;65494;42.818;0.404;2023-09-18T07:35:36;3.08;;;1.25;;
55813;SDS011;65494;42.818;0.404;2023-09-18T07:38:03;2.97;;;1.33;;
55813;SDS011;65494;42.818;0.404;2023-09-18T07:40:29;1.73;;;1.08;;
55813;SDS011;65494;42.818;0.404;2023-09-18T07:42:55;2.22;;;1.15;;
55813;SDS011;65494;42.818;0.404;2023-09-18T07:45:22;2.83;;;1.30;;
55813;SDS011;65494;42.818;0.404;2023-09-18T07:47:49;4.88;;;1.17;;
55813;SDS011;65494;42.818;0.404;2023-09-18T07:50:15;2.20;;;1.10;;
55813;SDS011;65494;42.818;0.404;2023-09-18T07:52:42;3.83;;;1.10;;
55813;SDS011;65494;42.818;0.404;2023-09-18T07:55:08;1.85;;;0.90;;
55813;SDS011;65494;42.818;0.404;2023-09-18T07:57:46;2.35;;;0.98;;
55813;SDS011;65494;42.818;0.404;2023-09-18T08:00:14;3.17;;;1.10;;
55813;SDS011;65494;42.818;0.404;2023-09-18T08:02:40;3.50;;;1.00;;
55813;SDS011;65494;42.818;0.404;2023-09-18T08:05:07;2.92;;;0.93;;
55813;SDS011;65494;42.818;0.404;2023-09-18T08:07:36;4.82;;;1.20;;
55813;SDS011;65494;42.818;0.404;2023-09-18T08:10:03;3.30;;;1.23;;
55813;SDS011;65494;42.818;0.404;2023-09-18T08:12:33;3.05;;;0.88;;
55813;SDS011;65494;42.818;0.404;2023-09-18T08:15:00;4.10;;;1.02;;
55813;SDS011;65494;42.818;0.404;2023-09-18T08:17:27;2.63;;;0.90;;
55813;SDS011;65494;42.818;0.404;2023-09-18T08:22:57;1.63;;;0.80;;
55813;SDS011;65494;42.818;0.404;2023-09-18T08:25:32;2.20;;;0.88;;
55813;SDS011;65494;42.818;0.404;2023-09-18T08:27:58;2.83;;;1.20;;
55813;SDS011;65494;42.818;0.404;2023-09-18T08:30:24;3.85;;;1.00;;
55813;SDS011;65494;42.818;0.404;2023-09-18T08:32:50;2.58;;;0.98;;
55813;SDS011;65494;42.818;0.404;2023-09-18T08:35:16;2.58;;;0.82;;
55813;SDS011;65494;42.818;0.404;2023-09-18T08:37:43;4.10;;;0.98;;
55813;SDS011;65494;42.818;0.404;2023-09-18T08:40:09;2.45;;;1.02;;
55813;SDS011;65494;42.818;0.404;2023-09-18T08:42:37;2.97;;;0.93;;
55813;SDS011;65494;42.818;0.404;2023-09-18T08:45:06;4.18;;;1.25;;
55813;SDS011;65494;42.818;0.404;2023-09-18T08:47:34;4.55;;;1.63;;
55813;SDS011;65494;42.818;0.404;2023-09-18T08:50:01;3.08;;;1.20;;
55813;SDS011;65494;42.818;0.404;2023-09-18T08:52:27;1.95;;;0.82;;
55813;SDS011;65494;42.818;0.404;2023-09-18T08:54:54;1.95;;;0.80;;
55813;SDS011;65494;42.818;0.404;2023-09-18T08:57:21;3.40;;;0.90;;
55813;SDS011;65494;42.818;0.404;2023-09-18T08:59:48;1.42;;;0.63;;
55813;SDS011;65494;42.818;0.404;2023-09-18T09:02:15;3.60;;;0.90;;
55813;SDS011;65494;42.818;0.404;2023-09-18T09:04:41;1.70;;;0.90;;
55813;SDS011;65494;42.818;0.404;2023-09-18T09:07:07;2.80;;;1.20;;
55813;SDS011;65494;42.818;0.404;2023-09-18T09:09:33;1.60;;;0.80;;
55813;SDS011;65494;42.818;0.404;2023-09-18T09:11:59;1.20;;;0.82;;
55813;SDS011;65494;42.818;0.404;2023-09-18T09:14:25;2.03;;;0.70;;
55813;SDS011;65494;42.818;0.404;2023-09-18T09:16:55;1.35;;;0.77;;
55813;SDS011;65494;42.818;0.404;2023-09-18T09:19:31;5.82;;;0.90;;
55813;SDS011;65494;42.818;0.404;2023-09-18T09:22:00;1.30;;;0.60;;
55813;SDS011;65494;42.818;0.404;2023-09-18T09:24:38;1.80;;;0.75;;
55813;SDS011;65494;42.818;0.404;2023-09-18T09:27:05;1.75;;;0.70;;
55813;SDS011;65494;42.818;0.404;2023-09-18T09:29:31;1.80;;;0.65;;
55813;SDS011;65494;42.818;0.404;2023-09-18T09:32:18;2.08;;;0.80;;
55813;SDS011;65494;42.818;0.404;2023-09-18T09:34:44;3.47;;;0.47;;
55813;SDS011;65494;42.818;0.404;2023-09-18T09:37:14;5.38;;;1.20;;
55813;SDS011;65494;42.818;0.404;2023-09-18T09:39:50;0.90;;;0.60;;
55813;SDS011;65494;42.818;0.404;2023-09-18T09:42:19;0.95;;;0.60;;
55813;SDS011;65494;42.818;0.404;2023-09-18T09:45:11;1.08;;;0.60;;
55813;SDS011;65494;42.818;0.404;2023-09-18T09:47:36;2.20;;;0.60;;
55813;SDS011;65494;42.818;0.404;2023-09-18T09:50:05;2.08;;;0.68;;
55813;SDS011;65494;42.818;0.404;2023-09-18T09:52:33;2.63;;;0.90;;
55813;SDS011;65494;42.818;0.404;2023-09-18T09:54:59;1.25;;;0.60;;
55813;SDS011;65494;42.818;0.404;2023-09-18T09:57:25;0.77;;;0.43;;
55813;SDS011;65494;42.818;0.404;2023-09-18T09:59:51;1.25;;;0.40;;
55813;SDS011;65494;42.818;0.404;2023-09-18T10:02:19;0.75;;;0.50;;
55813;SDS011;65494;42.818;0.404;2023-09-18T10:04:47;1.35;;;0.30;;
55813;SDS011;65494;42.818;0.404;2023-09-18T10:07:15;0.82;;;0.47;;
55813;SDS011;65494;42.818;0.404;2023-09-18T10:09:43;0.50;;;0.30;;
55813;SDS011;65494;42.818;0.404;2023-09-18T10:12:14;1.42;;;0.30;;
55813;SDS011;65494;42.818;0.404;2023-09-18T10:14:41;1.75;;;0.32;;
55813;SDS011;65494;42.818;0.404;2023-09-18T10:17:18;2.00;;;0.40;;
55813;SDS011;65494;42.818;0.404;2023-09-18T10:22:33;0.45;;;0.40;;
55813;SDS011;65494;42.818;0.404;2023-09-18T10:25:15;1.05;;;0.38;;
55813;SDS011;65494;42.818;0.404;2023-09-18T10:27:46;0.28;;;0.25;;
55813;SDS011;65494;42.818;0.404;2023-09-18T10:30:19;1.55;;;0.40;;
55813;SDS011;65494;42.818;0.404;2023-09-18T10:32:48;1.02;;;0.20;;
55813;SDS011;65494;42.818;0.404;2023-09-18T10:35:15;0.35;;;0.20;;
55813;SDS011;65494;42.818;0.404;2023-09-18T10:37:42;1.98;;;1.05;;
55813;SDS011;65494;42.818;0.404;2023-09-18T10:40:11;1.25;;;0.50;;
55813;SDS011;65494;42.818;0.404;2023-09-18T10:42:38;0.80;;;0.43;;
55813;SDS011;65494;42.818;0.404;2023-09-18T10:45:04;0.50;;;0.40;;
55813;SDS011;65494;42.818;0.404;2023-09-18T10:47:31;1.63;;;0.35;;
55813;SDS011;65494;42.818;0.404;2023-09-18T10:49:59;1.65;;;0.40;;
55813;SDS011;65494;42.818;0.404;2023-09-18T10:52:26;0.47;;;0.30;;
55813;SDS011;65494;42.818;0.404;2023-09-18T10:54:52;3.03;;;0.40;;
55813;SDS011;65494;42.818;0.404;2023-09-18T10:57:18;1.15;;;0.25;;
55813;SDS011;65494;42.818;0.404;2023-09-18T10:59:45;0.30;;;0.30;;
55813;SDS011;65494;42.818;0.404;2023-09-18T11:02:15;0.88;;;0.47;;
55813;SDS011;65494;42.818;0.404;2023-09-18T11:04:42;0.52;;;0.30;;
55813;SDS011;65494;42.818;0.404;2023-09-18T11:07:08;0.82;;;0.40;;
55813;SDS011;65494;42.818;0.404;2023-09-18T11:09:41;1.30;;;0.30;;
55813;SDS011;65494;42.818;0.404;2023-09-18T11:12:09;0.82;;;0.35;;
55813;SDS011;65494;42.818;0.404;2023-09-18T11:14:46;1.10;;;0.30;;
55813;SDS011;65494;42.818;0.404;2023-09-18T11:17:34;0.95;;;0.40;;
55813;SDS011;65494;42.818;0.404;2023-09-18T11:20:08;1.23;;;0.30;;
55813;SDS011;65494;42.818;0.404;2023-09-18T11:22:36;1.50;;;0.30;;
55813;SDS011;65494;42.818;0.404;2023-09-18T11:27:53;1.08;;;0.40;;
55813;SDS011;65494;42.818;0.404;2023-09-18T11:30:20;0.70;;;0.40;;
55813;SDS011;65494;42.818;0.404;2023-09-18T11:32:46;0.60;;;0.40;;
55813;SDS011;65494;42.818;0.404;2023-09-18T11:35:12;0.95;;;0.50;;
55813;SDS011;65494;42.818;0.404;2023-09-18T11:37:42;2.50;;;0.43;;
55813;SDS011;65494;42.818;0.404;2023-09-18T11:40:26;1.27;;;0.50;;
55813;SDS011;65494;42.818;0.404;2023-09-18T11:45:41;1.80;;;0.40;;
55813;SDS011;65494;42.818;0.404;2023-09-18T11:48:07;1.17;;;0.40;;
55813;SDS011;65494;42.818;0.404;2023-09-18T11:50:37;3.33;;;0.40;;
55813;SDS011;65494;42.818;0.404;2023-09-18T11:53:05;0.77;;;0.40;;
55813;SDS011;65494;42.818;0.404;2023-09-18T11:55:31;1.20;;;0.30;;
55813;SDS011;65494;42.818;0.404;2023-09-18T11:57:59;2.05;;;0.50;;
55813;SDS011;65494;42.818;0.404;2023-09-18T12:00:29;1.73;;;0.47;;
55813;SDS011;65494;42.818;0.404;2023-09-18T12:06:04;2.65;;;0.57;;
55813;SDS011;65494;42.818;0.404;2023-09-18T12:08:30;2.17;;;0.68;;
55813;SDS011;65494;42.818;0.404;2023-09-18T12:11:03;0.77;;;0.38;;
55813;SDS011;65494;42.818;0.404;2023-09-18T12:13:47;0.95;;;0.40;;
55813;SDS011;65494;42.818;0.404;2023-09-18T12:16:30;2.47;;;0.45;;
55813;SDS011;65494;42.818;0.404;2023-09-18T12:18:57;2.80;;;0.60;;
55813;SDS011;65494;42.818;0.404;2023-09-18T12:21:24;0.70;;;0.50;;
55813;SDS011;65494;42.818;0.404;2023-09-18T12:32:18;0.80;;;0.40;;
55813;SDS011;65494;42.818;0.404;2023-09-18T12:40:41;1.75;;;0.40;;
55813;SDS011;65494;42.818;0.404;2023-09-18T12:43:12;1.23;;;0.60;;
55813;SDS011;65494;42.818;0.404;2023-09-18T12:45:43;1.33;;;0.60;;
55813;SDS011;65494;42.818;0.404;2023-09-18T12:48:14;0.95;;;0.40;;
55813;SDS011;65494;42.818;0.404;2023-09-18T12:54:14;1.17;;;0.40;;
55813;SDS011;65494;42.818;0.404;2023-09-18T12:57:04;2.33;;;0.80;;
55813;SDS011;65494;42.818;0.404;2023-09-18T12:59:54;2.10;;;0.98;;
55813;SDS011;65494;42.818;0.404;2023-09-18T13:03:04;1.92;;;1.00;;
55813;SDS011;65494;42.818;0.404;2023-09-18T13:05:35;1.38;;;0.70;;
55813;SDS011;65494;42.818;0.404;2023-09-18T13:08:27;1.90;;;0.95;;
55813;SDS011;65494;42.818;0.404;2023-09-18T13:11:57;2.88;;;0.90;;
55813;SDS011;65494;42.818;0.404;2023-09-18T13:25:58;2.47;;;1.10;;
55813;SDS011;65494;42.818;0.404;2023-09-18T13:43:18;2.90;;;0.85;;
55813;SDS011;65494;42.818;0.404;2023-09-18T13:51:58;2.20;;;1.10;;
55813;SDS011;65494;42.818;0.404;2023-09-18T13:54:35;2.35;;;1.00;;
55813;SDS011;65494;42.818;0.404;2023-09-18T13:59:56;2.33;;;0.98;;
55813;SDS011;65494;42.818;0.404;2023-09-18T14:05:43;3.08;;;1.30;;
55813;SDS011;65494;42.818;0.404;2023-09-18T14:08:34;5.45;;;1.20;;
55813;SDS011;65494;42.818;0.404;2023-09-18T14:21:38;6.82;;;1.45;;
55813;SDS011;65494;42.818;0.404;2023-09-18T14:24:50;3.80;;;1.33;;
55813;SDS011;65494;42.818;0.404;2023-09-18T14:51:09;3.60;;;1.60;;
55813;SDS011;65494;42.818;0.404;2023-09-18T15:01:24;2.70;;;1.17;;
55813;SDS011;65494;42.818;0.404;2023-09-18T15:54:18;1.25;;;0.63;;
55813;SDS011;65494;42.818;0.404;2023-09-18T15:56:44;1.80;;;0.98;;
55813;SDS011;65494;42.818;0.404;2023-09-18T15:59:10;1.52;;;0.75;;
55813;SDS011;65494;42.818;0.404;2023-09-18T16:01:37;3.65;;;0.95;;
55813;SDS011;65494;42.818;0.404;2023-09-18T16:04:03;1.60;;;0.90;;
55813;SDS011;65494;42.818;0.404;2023-09-18T16:06:30;2.05;;;0.95;;
55813;SDS011;65494;42.818;0.404;2023-09-18T16:08:56;2.28;;;0.82;;
55813;SDS011;65494;42.818;0.404;2023-09-18T16:11:27;2.28;;;0.68;;
55813;SDS011;65494;42.818;0.404;2023-09-18T16:13:53;2.50;;;0.60;;
55813;SDS011;65494;42.818;0.404;2023-09-18T16:16:21;2.55;;;0.90;;
55813;SDS011;65494;42.818;0.404;2023-09-18T16:18:49;2.45;;;0.70;;
55813;SDS011;65494;42.818;0.404;2023-09-18T16:21:15;1.15;;;0.80;;
55813;SDS011;65494;42.818;0.404;2023-09-18T16:23:43;2.60;;;0.77;;
55813;SDS011;65494;42.818;0.404;2023-09-18T16:26:11;3.75;;;0.80;;
55813;SDS011;65494;42.818;0.404;2023-09-18T16:28:42;1.65;;;0.77;;
55813;SDS011;65494;42.818;0.404;2023-09-18T16:31:10;4.88;;;0.80;;
55813;SDS011;65494;42.818;0.404;2023-09-18T16:33:36;2.65;;;0.57;;
55813;SDS011;65494;42.818;0.404;2023-09-18T16:36:05;2.60;;;0.77;;
55813;SDS011;65494;42.818;0.404;2023-09-18T16:38:32;2.50;;;0.90;;
55813;SDS011;65494;42.818;0.404;2023-09-18T16:41:05;2.47;;;0.70;;
55813;SDS011;65494;42.818;0.404;2023-09-18T16:43:31;1.77;;;0.80;;
55813;SDS011;65494;42.818;0.404;2023-09-18T16:46:00;3.30;;;0.60;;
55813;SDS011;65494;42.818;0.404;2023-09-18T16:48:26;1.58;;;0.73;;
55813;SDS011;65494;42.818;0.404;2023-09-18T16:50:55;1.33;;;0.70;;
55813;SDS011;65494;42.818;0.404;2023-09-18T16:53:47;2.35;;;0.70;;
55813;SDS011;65494;42.818;0.404;2023-09-18T16:56:20;2.22;;;0.60;;
55813;SDS011;65494;42.818;0.404;2023-09-18T16:58:46;2.17;;;0.70;;
55813;SDS011;65494;42.818;0.404;2023-09-18T17:01:12;1.80;;;0.70;;
55813;SDS011;65494;42.818;0.404;2023-09-18T17:03:41;1.75;;;0.88;;
55813;SDS011;65494;42.818;0.404;2023-09-18T17:06:10;4.55;;;0.80;;
55813;SDS011;65494;42.818;0.404;2023-09-18T17:08:38;2.58;;;0.98;;
55813;SDS011;65494;42.818;0.404;2023-09-18T17:11:07;1.10;;;0.63;;
55813;SDS011;65494;42.818;0.404;2023-09-18T17:13:33;2.40;;;0.82;;
55813;SDS011;65494;42.818;0.404;2023-09-18T17:16:08;4.90;;;1.05;;
55813;SDS011;65494;42.818;0.404;2023-09-18T17:18:35;3.03;;;0.80;;
55813;SDS011;65494;42.818;0.404;2023-09-18T17:21:11;2.33;;;0.60;;
55813;SDS011;65494;42.818;0.404;2023-09-18T17:23:37;3.55;;;0.90;;
55813;SDS011;65494;42.818;0.404;2023-09-18T17:26:24;3.42;;;0.75;;
55813;SDS011;65494;42.818;0.404;2023-09-18T17:29:12;1.58;;;0.85;;
55813;SDS011;65494;42.818;0.404;2023-09-18T17:31:38;1.65;;;0.80;;
55813;SDS011;65494;42.818;0.404;2023-09-18T17:34:04;3.55;;;0.90;;
55813;SDS011;65494;42.818;0.404;2023-09-18T17:36:30;4.72;;;0.80;;
55813;SDS011;65494;42.818;0.404;2023-09-18T17:38:56;4.72;;;1.23;;
55813;SDS011;65494;42.818;0.404;2023-09-18T17:41:22;2.75;;;0.90;;
55813;SDS011;65494;42.818;0.404;2023-09-18T17:43:55;2.95;;;0.80;;
55813;SDS011;65494;42.818;0.404;2023-09-18T17:46:24;2.35;;;0.70;;
55813;SDS011;65494;42.818;0.404;2023-09-18T17:48:53;6.00;;;1.00;;
55813;SDS011;65494;42.818;0.404;2023-09-18T18:00:37;3.42;;;0.88;;
55813;SDS011;65494;42.818;0.404;2023-09-18T18:40:33;5.40;;;1.05;;
55813;SDS011;65494;42.818;0.404;2023-09-18T18:43:21;2.80;;;0.70;;
55813;SDS011;65494;42.818;0.404;2023-09-18T18:48:28;3.80;;;0.98;;
55813;SDS011;65494;42.818;0.404;2023-09-18T18:53:27;8.13;;;0.90;;
55813;SDS011;65494;42.818;0.404;2023-09-18T18:55:54;4.85;;;1.08;;
55813;SDS011;65494;42.818;0.404;2023-09-18T18:58:21;6.70;;;1.30;;
55813;SDS011;65494;42.818;0.404;2023-09-18T19:00:47;6.40;;;1.08;;
55813;SDS011;65494;42.818;0.404;2023-09-18T19:03:16;6.57;;;1.08;;
55813;SDS011;65494;42.818;0.404;2023-09-18T19:05:43;4.47;;;1.20;;
55813;SDS011;65494;42.818;0.404;2023-09-18T19:08:10;9.02;;;1.15;;
55813;SDS011;65494;42.818;0.404;2023-09-18T19:10:40;3.92;;;1.02;;
55813;SDS011;65494;42.818;0.404;2023-09-18T19:13:06;4.97;;;1.00;;
55813;SDS011;65494;42.818;0.404;2023-09-18T19:15:33;4.43;;;1.05;;
55813;SDS011;65494;42.818;0.404;2023-09-18T19:17:59;6.47;;;0.80;;
55813;SDS011;65494;42.818;0.404;2023-09-18T19:20:25;2.88;;;0.93;;
55813;SDS011;65494;42.818;0.404;2023-09-18T19:22:52;5.78;;;1.10;;
55813;SDS011;65494;42.818;0.404;2023-09-18T19:25:18;4.03;;;1.10;;
55813;SDS011;65494;42.818;0.404;2023-09-18T19:27:46;4.35;;;1.40;;
55813;SDS011;65494;42.818;0.404;2023-09-18T19:30:12;5.15;;;1.30;;
55813;SDS011;65494;42.818;0.404;2023-09-18T19:32:39;6.63;;;1.10;;
55813;SDS011;65494;42.818;0.404;2023-09-18T19:35:06;2.50;;;0.63;;
55813;SDS011;65494;42.818;0.404;2023-09-18T19:37:32;1.85;;;0.85;;
55813;SDS011;65494;42.818;0.404;2023-09-18T19:39:59;4.45;;;0.85;;
55813;SDS011;65494;42.818;0.404;2023-09-18T19:42:25;2.83;;;0.70;;
55813;SDS011;65494;42.818;0.404;2023-09-18T19:44:52;5.38;;;0.80;;
55813;SDS011;65494;42.818;0.404;2023-09-18T19:47:18;5.75;;;1.05;;
55813;SDS011;65494;42.818;0.404;2023-09-18T19:49:44;1.73;;;0.50;;
55813;SDS011;65494;42.818;0.404;2023-09-18T19:52:11;1.42;;;0.63;;
55813;SDS011;65494;42.818;0.404;2023-09-18T19:54:42;2.30;;;0.73;;
55813;SDS011;65494;42.818;0.404;2023-09-18T19:57:08;3.55;;;0.82;;
55813;SDS011;65494;42.818;0.404;2023-09-18T19:59:35;4.55;;;0.80;;
55813;SDS011;65494;42.818;0.404;2023-09-18T20:02:01;4.82;;;1.00;;
55813;SDS011;65494;42.818;0.404;2023-09-18T20:04:31;5.32;;;0.88;;
55813;SDS011;65494;42.818;0.404;2023-09-18T20:06:57;3.40;;;0.85;;
55813;SDS011;65494;42.818;0.404;2023-09-18T20:09:23;3.92;;;0.98;;
55813;SDS011;65494;42.818;0.404;2023-09-18T20:11:49;5.78;;;1.20;;
55813;SDS011;65494;42.818;0.404;2023-09-18T20:14:16;6.13;;;0.95;;
55813;SDS011;65494;42.818;0.404;2023-09-18T20:16:43;4.78;;;0.90;;
55813;SDS011;65494;42.818;0.404;2023-09-18T20:19:09;3.78;;;1.00;;
55813;SDS011;65494;42.818;0.404;2023-09-18T20:21:42;7.22;;;1.17;;
55813;SDS011;65494;42.818;0.404;2023-09-18T20:24:08;6.00;;;1.13;;
55813;SDS011;65494;42.818;0.404;2023-09-18T20:26:35;4.50;;;0.93;;
55813;SDS011;65494;42.818;0.404;2023-09-18T20:29:02;4.32;;;0.95;;
55813;SDS011;65494;42.818;0.404;2023-09-18T20:31:28;3.60;;;1.00;;
55813;SDS011;65494;42.818;0.404;2023-09-18T20:33:54;4.13;;;1.15;;
55813;SDS011;65494;42.818;0.404;2023-09-18T20:36:21;3.78;;;1.00;;
55813;SDS011;65494;42.818;0.404;2023-09-18T20:38:49;4.68;;;1.00;;
55813;SDS011;65494;42.818;0.404;2023-09-18T20:41:15;4.93;;;1.05;;
55813;SDS011;65494;42.818;0.404;2023-09-18T20:43:41;3.25;;;1.10;;
55813;SDS011;65494;42.818;0.404;2023-09-18T20:46:10;4.80;;;1.08;;
55813;SDS011;65494;42.818;0.404;2023-09-18T20:48:37;3.08;;;0.88;;
55813;SDS011;65494;42.818;0.404;2023-09-18T20:51:03;4.82;;;0.85;;
55813;SDS011;65494;42.818;0.404;2023-09-18T20:53:30;6.57;;;1.13;;
55813;SDS011;65494;42.818;0.404;2023-09-18T20:55:56;4.07;;;1.00;;
55813;SDS011;65494;42.818;0.404;2023-09-18T20:58:23;3.28;;;1.00;;
55813;SDS011;65494;42.818;0.404;2023-09-18T21:00:49;4.35;;;0.82;;
55813;SDS011;65494;42.818;0.404;2023-09-18T21:03:19;3.55;;;1.00;;
55813;SDS011;65494;42.818;0.404;2023-09-18T21:05:52;4.10;;;1.20;;
55813;SDS011;65494;42.818;0.404;2023-09-18T21:08:19;4.47;;;0.90;;
55813;SDS011;65494;42.818;0.404;2023-09-18T21:10:45;4.80;;;1.15;;
55813;SDS011;65494;42.818;0.404;2023-09-18T21:13:13;7.03;;;1.20;;
55813;SDS011;65494;42.818;0.404;2023-09-18T21:15:39;2.95;;;0.98;;
55813;SDS011;65494;42.818;0.404;2023-09-18T21:18:05;3.67;;;0.95;;
55813;SDS011;65494;42.818;0.404;2023-09-18T21:20:33;3.88;;;0.90;;
55813;SDS011;65494;42.818;0.404;2023-09-18T21:23:00;2.30;;;0.77;;
55813;SDS011;65494;42.818;0.404;2023-09-18T21:25:30;2.60;;;1.00;;
55813;SDS011;65494;42.818;0.404;2023-09-18T21:28:33;4.30;;;1.00;;
55813;SDS011;65494;42.818;0.404;2023-09-18T21:31:28;6.15;;;1.17;;
55813;SDS011;65494;42.818;0.404;2023-09-18T21:33:56;3.03;;;0.75;;
55813;SDS011;65494;42.818;0.404;2023-09-18T21:36:40;4.80;;;1.10;;
55813;SDS011;65494;42.818;0.404;2023-09-18T21:39:26;3.83;;;0.90;;
55813;SDS011;65494;42.818;0.404;2023-09-18T21:42:21;6.15;;;1.02;;
55813;SDS011;65494;42.818;0.404;2023-09-18T21:44:48;5.93;;;1.23;;
55813;SDS011;65494;42.818;0.404;2023-09-18T21:50:34;4.32;;;1.20;;
55813;SDS011;65494;42.818;0.404;2023-09-18T21:53:11;3.35;;;0.85;;
55813;SDS011;65494;42.818;0.404;2023-09-18T21:55:42;4.40;;;1.10;;
55813;SDS011;65494;42.818;0.404;2023-09-18T21:58:08;3.97;;;1.30;;
55813;SDS011;65494;42.818;0.404;2023-09-18T22:00:34;4.45;;;0.90;;
55813;SDS011;65494;42.818;0.404;2023-09-18T22:03:05;3.72;;;0.88;;
55813;SDS011;65494;42.818;0.404;2023-09-18T22:05:39;1.92;;;0.70;;
55813;SDS011;65494;42.818;0.404;2023-09-18T22:08:06;2.67;;;0.88;;
55813;SDS011;65494;42.818;0.404;2023-09-18T22:10:32;1.42;;;0.70;;
55813;SDS011;65494;42.818;0.404;2023-09-18T22:13:00;4.20;;;0.80;;
55813;SDS011;65494;42.818;0.404;2023-09-18T22:18:44;4.30;;;0.90;;
55813;SDS011;65494;42.818;0.404;2023-09-18T22:21:13;3.47;;;0.80;;
